Latest Weather Observations for Cooktown

IDQ60801

Issued at 7:32 pm EST Tuesday 9 February 2016 (issued every 30 minutes, with the page automatically refreshed every 10 minutes)

About weather observations | Map of weather stations | Latest weather observations for QLD | Other Formats
Station Details ID: 031209 Name: COOKTOWN AIRPORT Lat: -15.45 Lon: 145.19 Height: 4.8 m
Data from the previous 72 hours. | See also: Recent months at Cooktown
Date/Time
EST
Temp
°C
App
Temp
°C
Dew
Point
Rel
Hum
%
Delta-T
°C
Wind Press
QNH
hPa
Press
MSL
hPa
Rain
since 9 am
mm
Dir
 
Spd
km/h
Gust
km/h
Spd
kts
Gust
kts
09/07:30pm 28.0 32.1 25.2 85 2.0 SE 13 20 7 11 1007.6 - 0.6
09/07:00pm 27.7 32.1 25.1 86 1.8 SE 11 15 6 8 1007.4 - 0.6
09/06:30pm 27.6 31.8 25.3 87 1.6 ESE 13 20 7 11 1006.4 - 0.6
09/06:00pm 27.6 32.3 25.6 89 1.4 E 11 19 6 10 1006.4 1006.3 0.6
09/05:30pm 27.3 31.4 25.2 88 1.5 ESE 13 20 7 11 1005.7 - 0.6
09/05:00pm 28.0 32.2 25.3 85 1.9 SE 13 20 7 11 1006.1 - 0.0
09/04:30pm 28.4 30.5 24.7 80 2.6 SE 22 39 12 21 1005.8 - 0.0
09/04:00pm 29.0 32.0 24.6 77 3.1 SE 17 30 9 16 1005.8 - 0.0
09/03:30pm 30.7 32.5 25.5 74 3.7 ESE 26 43 14 23 1005.5 - 0.0
09/03:00pm 31.0 33.1 25.4 72 4.0 ESE 24 41 13 22 1005.4 1005.3 0.0
09/02:30pm 31.1 32.6 25.0 70 4.3 ESE 26 39 14 21 1005.9 - 0.0
09/02:00pm 32.2 35.1 25.4 67 4.8 ESE 20 32 11 17 1006.1 - 0.0
09/01:30pm 31.7 33.1 25.4 69 4.5 E 28 35 15 19 1006.7 - 0.0
09/01:00pm 31.9 34.2 25.7 69 4.4 ESE 24 35 13 19 1007.1 - 0.0
09/12:30pm 32.1 34.8 24.7 65 5.2 ESE 19 26 10 14 1007.5 - 0.0
09/12:00pm 31.8 34.5 25.0 67 4.8 ESE 20 28 11 15 1007.8 1007.8 0.0
09/11:30am 31.6 34.5 25.1 68 4.6 ESE 19 30 10 16 1008.2 - 0.0
09/11:00am 31.4 33.9 24.4 66 4.9 SE 19 30 10 16 1008.8 - 0.0
09/10:30am 31.0 33.2 24.3 67 4.7 SE 20 32 11 17 1009.0 - 0.0
09/10:00am 30.6 33.0 24.6 70 4.2 ESE 20 32 11 17 1009.3 - 0.0
09/09:30am 30.3 32.0 24.1 69 4.3 E 22 28 12 15 1009.2 - 0.0
09/09:00am 30.2 34.5 24.3 70 4.1 E 9 17 5 9 1009.1 1009.0 0.4
09/08:30am 29.8 35.9 25.1 76 3.3 NNW 2 7 1 4 1008.8 - 0.4
09/08:00am 28.6 34.7 25.6 84 2.1 W 4 9 2 5 1008.5 - 0.2
09/07:30am 27.3 32.8 25.6 90 1.2 WNW 7 7 4 4 1008.3 - 0.2
09/07:00am 26.5 33.2 25.4 94 0.8 CALM 0 0 0 0 1007.8 - 0.2
09/06:30am 25.9 32.1 25.2 96 0.5 W 2 7 1 4 1007.7 - 0.2
09/06:02am 25.8 32.3 25.1 96 0.5 CALM 0 0 0 0 1007.5 - 0.2
09/06:00am 25.8 32.3 25.1 96 0.5 CALM 0 0 0 0 1007.5 - 0.2
09/05:30am 26.0 31.9 25.3 96 0.5 S 4 7 2 4 1007.1 - 0.2
09/05:00am 25.9 30.6 25.0 95 0.6 W 9 13 5 7 1006.8 - 0.2
09/04:30am 25.7 30.7 24.8 95 0.6 W 7 11 4 6 1006.7 - 0.2
09/04:06am 25.7 31.5 25.1 96 0.4 NW 4 6 2 3 1006.7 - 0.2
09/04:00am 25.7 31.0 25.0 96 0.5 NNW 6 7 3 4 1006.8 - 0.2
09/03:45am 25.8 32.3 25.1 96 0.5 CALM 0 0 0 0 1006.8 - 0.2
09/03:30am 25.8 31.2 25.1 96 0.5 WNW 6 6 3 3 1006.7 - 0.2
09/03:21am 25.8 31.2 25.1 96 0.5 W 6 7 3 4 1006.8 - 0.2
09/03:00am 25.9 32.0 25.0 95 0.6 WNW 2 7 1 4 1006.6 1006.5 0.2
09/02:30am 26.0 31.2 25.1 95 0.6 W 7 9 4 5 1006.6 - 0.2
09/02:00am 26.1 32.2 25.1 94 0.7 WNW 2 7 1 4 1006.9 - 0.2
09/01:30am 26.2 32.5 25.3 95 0.6 WNW 2 6 1 3 1007.3 - 0.2
09/01:00am 26.3 31.6 25.3 94 0.7 W 7 11 4 6 1007.8 - 0.2
09/12:30am 26.8 32.2 25.1 90 1.2 WSW 6 7 3 4 1008.2 - 0.2
09/12:00am 27.2 31.7 24.6 86 1.8 SE 9 13 5 7 1008.5 1008.4 0.2
 
Date/Time
EST
Temp
°C
App
Temp
°C
Dew
Point
Rel
Hum
%
Delta-T
°C
Wind Press
QNH
hPa
Press
MSL
hPa
Rain
since 9 am
mm
Dir
 
Spd
km/h
Gust
km/h
Spd
kts
Gust
kts
08/11:30pm 27.4 31.6 24.8 86 1.8 E 11 17 6 9 1008.8 - 0.2
08/11:00pm 27.2 31.7 25.2 89 1.4 E 11 15 6 8 1009.3 - 0.2
08/10:30pm 26.8 32.6 25.2 91 1.1 SW 4 11 2 6 1009.3 - 0.2
08/10:06pm 26.8 33.7 25.7 94 0.8 CALM 0 0 0 0 1008.9 - 0.2
08/10:00pm 26.8 33.7 25.7 94 0.8 CALM 0 0 0 0 1008.9 - 0.2
08/09:30pm 26.8 33.8 25.8 94 0.7 CALM 0 0 0 0 1008.4 - 0.2
08/09:28pm 26.8 33.8 25.8 94 0.7 CALM 0 0 0 0 1008.4 - 0.2
08/09:17pm 26.8 33.3 25.7 94 0.8 N 2 7 1 4 1008.2 - 0.2
08/09:08pm 26.8 32.6 25.7 94 0.8 NW 6 7 3 4 1008.1 - 0.2
08/09:00pm 26.7 32.3 25.7 94 0.7 W 7 9 4 5 1008.2 1008.1 0.2
08/08:58pm 26.7 32.3 25.7 94 0.7 W 7 9 4 5 1008.2 - 0.2
08/08:37pm 26.8 33.2 25.5 93 0.9 W 2 7 1 4 1008.1 - 0.2
08/08:30pm 26.8 32.4 25.5 93 0.9 W 6 7 3 4 1008.1 - 0.2
08/08:00pm 27.0 32.5 25.3 90 1.2 S 6 7 3 4 1008.3 - 0.2
08/07:30pm 27.0 32.2 25.1 89 1.3 NW 7 11 4 6 1008.1 - 0.2
08/07:00pm 27.1 32.5 25.4 90 1.2 NW 7 11 4 6 1007.5 - 0.2
08/06:30pm 27.1 31.6 25.2 89 1.3 WNW 11 13 6 7 1006.9 - 0.2
08/06:00pm 27.9 33.5 24.9 84 2.1 W 4 9 2 5 1006.5 1006.4 0.2
08/05:30pm 28.5 33.4 25.2 82 2.3 SW 9 13 5 7 1006.5 - 0.2
08/05:00pm 27.8 32.9 25.5 87 1.6 SW 9 11 5 6 1006.7 - 0.2
08/04:45pm 27.6 33.3 25.6 89 1.4 WNW 6 9 3 5 1006.5 - 0.2
08/04:30pm 27.0 32.9 25.9 94 0.8 WSW 6 9 3 5 1006.6 - 0.2
08/04:26pm 27.0 32.9 25.9 94 0.8 W 6 11 3 6 1006.6 - 0.2
08/04:00pm 27.3 31.8 25.2 88 1.5 W 11 17 6 9 1006.7 - 0.0
08/03:41pm 27.3 30.3 25.2 88 1.5 NW 19 20 10 11 1006.7 - 0.0
08/03:30pm 27.6 30.3 24.7 84 2.0 W 19 26 10 14 1006.6 - 0.0
08/03:19pm 28.5 31.2 24.8 80 2.6 WNW 19 26 10 14 1006.7 - 0.0
08/03:00pm 31.1 35.1 26.8 78 3.1 E 19 26 10 14 1006.2 1006.1 0.0
08/02:30pm 32.5 36.7 27.4 74 3.7 ENE 20 30 11 16 1006.3 - 0.0
08/02:00pm 31.9 35.8 27.5 77 3.2 ESE 22 33 12 18 1006.0 - 0.0
08/01:30pm 32.5 36.3 27.3 74 3.8 E 22 30 12 16 1006.7 - 0.0
08/01:00pm 32.5 36.0 26.8 72 4.1 E 22 30 12 16 1006.8 - 0.0
08/12:30pm 32.6 35.5 25.9 68 4.8 E 22 26 12 14 1007.3 - 0.0
08/12:00pm 32.9 36.9 27.1 71 4.2 E 20 26 11 14 1007.8 1007.8 0.0
08/11:30am 32.2 36.0 26.4 71 4.2 E 19 20 10 11 1008.3 - 0.0
08/11:00am 32.9 38.8 26.2 68 4.8 ESE 7 11 4 6 1008.6 - 0.0
08/10:30am 32.7 39.3 26.4 69 4.5 NNW 4 11 2 6 1008.6 - 0.0
08/10:00am 32.4 38.6 26.7 72 4.1 WNW 7 11 4 6 1008.9 - 0.0
08/09:30am 31.6 37.1 26.1 72 3.9 WNW 9 13 5 7 1008.8 - 0.0
08/09:15am 31.4 37.1 25.9 72 3.9 NW 7 11 4 6 1008.9 - 0.0
08/09:00am 31.2 36.7 26.2 75 3.6 WNW 9 13 5 7 1009.0 1008.9 0.0
08/08:57am 31.3 36.6 26.4 75 3.5 WNW 11 13 6 7 1009.0 - 0.0
08/08:30am 30.4 36.2 26.1 78 3.1 W 7 11 4 6 1009.1 - 0.0
08/08:00am 29.8 37.3 26.6 83 2.3 CALM 0 6 0 3 1008.9 - 0.0
08/07:30am 28.1 35.4 26.3 90 1.3 CALM 0 0 0 0 1008.8 - 0.0
08/07:00am 27.5 34.5 25.9 91 1.1 CALM 0 0 0 0 1008.3 - 0.0
08/06:37am 27.0 34.0 25.9 94 0.8 CALM 0 0 0 0 1007.9 - 0.0
08/06:30am 26.9 33.9 25.9 94 0.7 CALM 0 0 0 0 1007.8 - 0.0
08/06:25am 26.8 33.8 25.8 94 0.7 CALM 0 0 0 0 1007.7 - 0.0
08/06:00am 26.7 33.6 25.7 94 0.7 CALM 0 0 0 0 1007.5 1007.3 0.0
08/05:30am 26.7 32.5 25.7 94 0.7 W 6 7 3 4 1007.3 - 0.0
08/05:00am 26.6 32.4 25.7 95 0.6 W 6 7 3 4 1006.9 - 0.0
08/04:30am 26.6 33.4 25.6 94 0.7 CALM 0 0 0 0 1006.8 - 0.0
08/04:00am 26.7 33.5 25.6 94 0.8 CALM 0 0 0 0 1006.9 - 0.0
08/03:30am 26.7 32.5 25.7 94 0.7 W 6 7 3 4 1007.2 - 0.0
08/03:00am 26.7 32.2 25.6 94 0.8 WNW 7 11 4 6 1007.2 1007.1 0.0
08/02:30am 26.8 33.2 25.5 93 0.9 WNW 2 7 1 4 1007.4 - 0.0
08/02:00am 26.8 32.6 25.7 94 0.8 WNW 6 7 3 4 1007.5 - 0.0
08/01:30am 26.9 33.4 25.6 93 0.9 W 2 7 1 4 1007.7 - 0.0
08/01:00am 26.9 32.4 25.6 93 0.9 WNW 7 9 4 5 1007.7 - 0.0
08/12:30am 26.8 31.9 25.5 93 0.9 NNW 9 11 5 6 1008.0 - 0.0
08/12:00am 26.7 33.4 25.4 93 0.9 CALM 0 0 0 0 1008.2 1008.1 0.0
 
Date/Time
EST
Temp
°C
App
Temp
°C
Dew
Point
Rel
Hum
%
Delta-T
°C
Wind Press
QNH
hPa
Press
MSL
hPa
Rain
since 9 am
mm
Dir
 
Spd
km/h
Gust
km/h
Spd
kts
Gust
kts
07/11:30pm 26.7 33.3 25.3 92 1.0 CALM 0 0 0 0 1008.0 - 0.0
07/11:00pm 27.1 33.2 25.1 89 1.4 WNW 2 6 1 3 1008.2 - 0.0
07/10:30pm 27.2 33.2 24.9 87 1.6 WNW 2 7 1 4 1008.4 - 0.0
07/10:00pm 27.2 32.3 24.9 87 1.6 W 7 11 4 6 1008.1 - 0.0
07/09:30pm 27.4 32.4 24.8 86 1.8 W 7 11 4 6 1008.0 - 0.0
07/09:00pm 27.3 30.9 25.0 87 1.6 WNW 15 20 8 11 1007.7 1007.6 0.0
07/08:30pm 27.5 32.0 25.2 87 1.6 WSW 11 15 6 8 1007.4 - 0.0
07/08:00pm 27.7 32.3 25.3 87 1.7 WNW 11 15 6 8 1007.1 - 0.0
07/07:30pm 28.0 32.4 25.6 87 1.7 NW 13 19 7 10 1006.8 - 0.0
07/07:00pm 29.1 33.3 25.4 80 2.6 W 13 22 7 12 1006.4 - 0.0
07/06:30pm 30.9 36.7 25.8 74 3.6 NW 6 17 3 9 1005.7 - 0.0
07/06:00pm 31.3 36.7 25.5 71 4.1 NNE 7 11 4 6 1004.7 1004.5 0.0
07/05:30pm 32.2 37.1 25.8 69 4.6 N 11 17 6 9 1004.0 - 0.0
07/05:00pm 33.9 38.2 26.6 65 5.3 NNE 17 28 9 15 1003.6 - 0.0
07/04:30pm 34.5 39.9 27.1 65 5.4 ENE 13 20 7 11 1003.4 - 0.0
07/04:00pm 35.0 40.0 26.0 59 6.5 NE 11 19 6 10 1003.1 - 0.0
07/03:30pm 35.3 40.1 25.7 57 6.9 NNE 11 17 6 9 1003.2 - 0.0
07/03:00pm 34.8 39.5 26.7 63 5.9 ENE 15 22 8 12 1003.4 1003.4 0.0
07/02:30pm 34.3 39.2 26.9 65 5.4 E 15 19 8 10 1003.7 - 0.0
07/02:00pm 35.3 41.1 26.6 60 6.3 E 9 15 5 8 1004.1 - 0.0
07/01:30pm 35.0 40.4 26.0 59 6.5 ESE 9 13 5 7 1004.5 - 0.0
07/01:00pm 34.7 41.2 26.2 61 6.1 WNW 4 7 2 4 1005.2 - 0.0
07/12:30pm 34.4 41.1 25.9 61 6.1 WNW 2 7 1 4 1005.8 - 0.0
07/12:00pm 34.9 39.4 25.2 57 6.9 NW 11 19 6 10 1006.2 1006.1 0.0
07/11:30am 34.3 38.8 25.2 59 6.5 W 11 17 6 9 1006.5 - 0.0
07/11:00am 33.8 37.8 23.8 56 7.0 WNW 9 13 5 7 1006.8 - 0.0
07/10:30am 33.1 36.3 24.4 60 6.1 NW 15 20 8 11 1007.0 - 0.0
07/10:00am 32.7 36.9 25.4 65 5.2 WNW 13 20 7 11 1007.1 - 0.0
07/09:30am 31.3 35.2 24.9 69 4.5 WNW 13 20 7 11 1007.3 - 0.0
07/09:00am 30.8 35.2 25.6 74 3.7 WNW 13 20 7 11 1007.3 1007.2 0.0
07/08:30am 29.9 33.8 25.4 77 3.2 WNW 15 20 8 11 1007.2 - 0.0
07/08:00am 29.1 33.5 25.6 81 2.5 WNW 13 19 7 10 1007.2 - 0.0
07/07:30am 28.3 32.4 25.2 83 2.2 WNW 13 17 7 9 1006.9 - 0.0
07/07:00am 27.1 32.1 25.4 90 1.2 NW 9 13 5 7 1006.7 - 0.0
07/06:30am 26.6 31.7 25.0 91 1.1 W 7 9 4 5 1006.4 - 0.0
07/06:00am 26.3 31.7 25.2 94 0.8 WNW 6 6 3 3 1006.0 1005.9 0.0
07/05:30am 26.0 32.5 25.1 95 0.6 CALM 0 0 0 0 1005.4 - 0.0
07/05:00am 26.0 32.1 25.0 94 0.7 WSW 2 6 1 3 1005.1 - 0.0
07/04:30am 26.2 31.3 24.9 92 0.9 WNW 7 9 4 5 1004.8 - 0.0
07/04:00am 26.2 32.0 25.2 94 0.7 NW 4 6 2 3 1004.7 - 0.0
07/03:30am 26.4 31.9 25.3 94 0.8 W 6 7 3 4 1004.4 - 0.0
07/03:00am 26.7 32.8 25.1 91 1.1 WSW 2 7 1 4 1004.5 1004.4 0.0
07/02:30am 26.6 33.4 25.5 94 0.8 CALM 0 0 0 0 1004.7 - 0.0
07/02:00am 26.8 33.7 25.7 94 0.8 CALM 0 0 0 0 1005.0 - 0.0
07/01:30am 27.0 33.3 25.4 91 1.1 NW 2 7 1 4 1005.4 - 0.0
07/01:00am 27.1 32.5 25.5 91 1.1 NW 7 9 4 5 1005.7 - 0.0
07/12:30am 27.6 33.6 25.5 88 1.5 WNW 4 7 2 4 1005.9 - 0.0
07/12:00am 27.8 33.6 25.8 89 1.4 NW 6 9 3 5 1006.3 1006.3 0.0
 
Date/Time
EST
Temp
°C
App
Temp
°C
Dew
Point
Rel
Hum
%
Delta-T
°C
Wind Press
QNH
hPa
Press
MSL
hPa
Rain
since 9 am
mm
Dir
 
Spd
km/h
Gust
km/h
Spd
kts
Gust
kts
06/11:30pm 28.6 33.5 25.8 85 2.0 NW 11 15 6 8 1006.7 - 0.0
06/11:00pm 28.3 34.2 26.2 88 1.5 NNW 7 9 4 5 1006.5 - 0.0
06/10:30pm 29.0 34.4 26.0 84 2.1 NNW 9 11 5 6 1006.5 - 0.0
06/10:00pm 28.6 34.1 26.2 87 1.7 N 9 11 5 6 1006.2 - 0.0
06/09:30pm 28.6 35.5 26.8 90 1.3 NW 4 7 2 4 1006.0 - 0.0
06/09:00pm 28.2 35.6 26.5 90 1.2 CALM 0 0 0 0 1005.4 1005.3 0.0
06/08:30pm 28.8 36.3 26.6 88 1.6 CALM 0 0 0 0 1004.7 - 0.0
06/08:00pm 29.4 35.1 25.6 80 2.7 WSW 6 7 3 4 1004.0 - 0.0

Other Formats:

Comma delimited format used in spreadsheet applications
http://www.bom.gov.au/fwo/IDQ60801/IDQ60801.95283.axf

JavaScript Object Notation format (JSON) in row-major order
http://www.bom.gov.au/fwo/IDQ60801/IDQ60801.95283.json